Time;durP1;ratioP1;P1;durP2;ratioP2;P2;SDS_P1;SDS_P2;PMS_P1;PMS_P2;Temp;Humidity;BMP_temperature;BMP_pressure;BME280_temperature;BME280_humidity;BME280_pressure;Samples;Min_cycle;Max_cycle;Signal;HPM_P1;HPM_P2
2021/01/05 00:00:25;;;;;;;41.90;22.20;;;;;;;-1.97;100.00;95018.97;1034217;28;20034;-74
2021/01/05 00:00:56;;;;;;;36.27;19.67;;;;;;;-1.94;100.00;95017.78;1030117;28;20060;-74
2021/01/05 00:01:26;;;;;;;38.83;20.67;;;;;;;-1.93;100.00;95021.91;1034383;28;20030;-75
2021/01/05 00:01:57;;;;;;;39.37;19.90;;;;;;;-1.85;100.00;95031.97;1030429;28;20030;-74
2021/01/05 00:02:27;;;;;;;41.50;21.43;;;;;;;-1.87;100.00;95039.13;1034344;28;20026;-73
2021/01/05 00:02:58;;;;;;;44.03;20.60;;;;;;;-1.88;100.00;95029.81;1030098;28;20030;-73
2021/01/05 00:03:28;;;;;;;40.43;21.50;;;;;;;-1.80;100.00;95033.97;1034483;28;20402;-74
2021/01/05 00:03:59;;;;;;;43.67;21.33;;;;;;;-1.75;100.00;95028.97;1034408;28;20034;-76
2021/01/05 00:04:33;;;;;;;34.30;19.47;;;;;;;-1.76;100.00;95035.91;1033734;28;20532;-74
2021/01/05 00:05:13;;;;;;;35.58;19.00;;;;;;;-1.78;100.00;95042.25;1034170;28;20056;-73
2021/01/05 00:05:44;;;;;;;;;;;;;;;-1.81;100.00;95032.34;1030697;28;20141;-73
2021/01/05 00:06:14;;;;;;;31.83;16.87;;;;;;;-1.83;100.00;95036.94;1032416;28;19913;-74
2021/01/05 00:06:45;;;;;;;33.37;19.50;;;;;;;-1.83;100.00;95040.28;1031828;28;20049;-76
2021/01/05 00:07:15;;;;;;;33.80;19.03;;;;;;;-1.86;100.00;95034.75;1035876;28;20477;-73
2021/01/05 00:07:46;;;;;;;31.43;18.90;;;;;;;-1.92;100.00;95026.06;1034012;28;20084;-74
2021/01/05 00:08:16;;;;;;;32.83;18.80;;;;;;;-1.90;100.00;95029.22;1034470;28;20025;-74
2021/01/05 00:08:47;;;;;;;32.77;19.20;;;;;;;-1.87;100.00;95028.03;1029929;28;20049;-75
2021/01/05 00:09:17;;;;;;;30.60;19.13;;;;;;;-1.97;100.00;95024.09;1030639;28;20022;-74
2021/01/05 00:09:48;;;;;;;31.87;17.33;;;;;;;-1.93;100.00;95025.28;1026041;28;20070;-73
2021/01/05 00:10:18;;;;;;;31.53;17.40;;;;;;;-1.99;100.00;95013.22;1022368;29;20054;-74
2021/01/05 00:10:49;;;;;;;32.13;18.07;;;;;;;-1.96;100.00;95019.75;1022090;29;20044;-73
2021/01/05 00:11:19;;;;;;;31.00;18.43;;;;;;;-1.93;100.00;95024.50;1021944;28;20027;-75
2021/01/05 00:11:59;;;;;;;34.60;18.70;;;;;;;-1.90;100.00;95030.00;1026564;28;20031;-73
2021/01/05 00:12:30;;;;;;;33.15;17.30;;;;;;;-1.93;100.00;95021.91;1031750;28;20038;-73
2021/01/05 00:13:00;;;;;;;32.57;19.17;;;;;;;-2.05;100.00;94995.25;1027082;28;20337;-72
2021/01/05 00:13:31;;;;;;;40.63;18.90;;;;;;;-1.85;100.00;95031.97;1031778;28;20037;-72
2021/01/05 00:14:01;;;;;;;34.53;19.10;;;;;;;-1.90;100.00;95029.22;1034370;28;20033;-72
2021/01/05 00:14:32;;;;;;;32.17;18.50;;;;;;;-1.95;100.00;95016.19;1034900;28;20060;-74
2021/01/05 00:15:03;;;;;;;34.60;19.67;;;;;;;-1.96;100.00;95007.69;1033423;28;20018;-73
2021/01/05 00:15:34;;;;;;;36.20;19.02;;;;;;;-1.92;100.00;95026.06;1034365;28;20058;-73
2021/01/05 00:16:05;;;;;;;36.90;18.40;;;;;;;-1.83;100.00;95037.72;1034616;28;20037;-74
2021/01/05 00:16:35;;;;;;;35.90;19.33;;;;;;;-1.81;100.00;95040.06;1038244;28;20536;-75
2021/01/05 00:17:06;;;;;;;38.90;19.97;;;;;;;-1.87;100.00;95028.84;1034856;28;20032;-73
2021/01/05 00:17:36;;;;;;;33.10;18.83;;;;;;;-1.82;100.00;95036.72;1024999;28;20135;-73
2021/01/05 00:18:07;;;;;;;33.17;19.17;;;;;;;-1.83;100.00;95034.34;1024956;28;20102;-73
2021/01/05 00:18:37;;;;;;;34.13;19.43;;;;;;;-1.96;100.00;95012.03;1035230;28;20511;-73
2021/01/05 00:19:08;;;;;;;31.07;19.13;;;;;;;-1.86;100.00;95029.63;1034890;28;20030;-73
2021/01/05 00:19:39;;;;;;;34.58;18.63;;;;;;;-1.88;100.00;95029.81;1034826;28;20726;-73
2021/01/05 00:20:21;;;;;;;35.40;19.90;;;;;;;-1.98;100.00;95021.72;1035034;28;20160;-74
2021/01/05 00:20:51;;;;;;;35.58;19.15;;;;;;;-1.82;100.00;95035.94;1030200;28;20042;-73
2021/01/05 00:21:25;;;;;;;31.03;17.77;;;;;;;-1.87;100.00;95031.41;1034467;28;20096;-75
2021/01/05 00:21:56;;;;;;;33.63;19.75;;;;;;;-1.84;100.00;95030.22;1037009;28;20113;-76
2021/01/05 00:22:26;;;;;;;32.83;18.80;;;;;;;-1.86;100.00;95029.63;1036600;28;20096;-72
2021/01/05 00:22:57;;;;;;;34.37;20.30;;;;;;;-1.82;100.00;95031.56;1029846;28;20383;-74
2021/01/05 00:23:27;;;;;;;34.57;19.40;;;;;;;-1.81;100.00;95030.59;1030394;28;20035;-72
2021/01/05 00:23:57;;;;;;;29.97;18.00;;;;;;;-1.80;100.00;95036.53;1030688;28;20041;-74
2021/01/05 00:24:28;;;;;;;33.07;20.00;;;;;;;-1.90;100.00;95024.09;1035260;28;20156;-72
2021/01/05 00:24:58;;;;;;;32.90;18.47;;;;;;;-1.82;100.00;95023.06;1037031;28;20032;-73
2021/01/05 00:25:29;;;;;;;35.53;19.30;;;;;;;-1.75;100.00;95031.53;1034763;28;20652;-76
2021/01/05 00:25:59;;;;;;;32.37;18.73;;;;;;;-2.06;100.00;95003.97;1032596;28;20038;-73
2021/01/05 00:26:30;;;;;;;33.37;19.30;;;;;;;-1.85;100.00;95031.19;1031194;28;20061;-72
2021/01/05 00:27:01;;;;;;;31.00;18.23;;;;;;;-1.93;100.00;95020.13;1031009;28;20106;-75
2021/01/05 00:27:31;;;;;;;35.60;19.52;;;;;;;-1.86;100.00;95035.53;1031166;28;20029;-73
2021/01/05 00:28:02;;;;;;;33.17;18.57;;;;;;;-1.90;100.00;95024.09;1031104;28;20045;-72
2021/01/05 00:28:32;;;;;;;32.80;18.87;;;;;;;-1.90;100.00;95031.81;1030819;28;20375;-72
2021/01/05 00:29:03;;;;;;;37.23;18.80;;;;;;;-2.01;100.00;95007.50;1027109;28;20026;-72
2021/01/05 00:29:34;;;;;;;31.88;17.92;;;;;;;-2.00;100.00;95013.44;1027145;28;20429;-73
2021/01/05 00:30:10;;;;;;;35.50;19.27;;;;;;;-1.95;100.00;95022.09;1030498;28;20060;-76
2021/01/05 00:30:41;;;;;;;34.15;18.10;;;;;;;-1.95;100.00;95029.03;1027100;28;20034;-72
2021/01/05 00:31:11;;;;;;;32.27;18.03;;;;;;;-1.98;100.00;95026.88;1023242;29;20039;-75
2021/01/05 00:31:42;;;;;;;34.07;18.60;;;;;;;-1.98;100.00;95032.81;1033598;28;20045;-73
2021/01/05 00:32:14;;;;;;;33.00;18.53;;;;;;;-1.99;100.00;95027.88;1035942;28;20041;-73
2021/01/05 00:32:45;;;;;;;32.05;17.75;;;;;;;-2.01;100.00;95037.53;1038884;28;20040;-72
2021/01/05 00:33:17;;;;;;;34.67;20.23;;;;;;;-2.13;100.00;95025.31;1034980;28;20033;-75
2021/01/05 00:33:47;;;;;;;35.00;19.85;;;;;;;-2.08;100.00;95031.63;1035330;28;20540;-73
2021/01/05 00:34:18;;;;;;;32.80;18.90;;;;;;;-2.04;100.00;95035.41;1031410;28;20023;-74
2021/01/05 00:34:48;;;;;;;31.80;18.90;;;;;;;-1.97;100.00;95044.66;1030586;28;20038;-74
2021/01/05 00:35:21;;;;;;;37.80;19.80;;;;;;;-2.08;100.00;95022.13;1034324;28;20483;-73
2021/01/05 00:35:51;;;;;;;33.42;18.85;;;;;;;-1.97;100.00;95038.75;1023780;28;20676;-72
2021/01/05 00:36:22;;;;;;;33.43;18.27;;;;;;;-2.02;100.00;95033.41;1027453;28;20031;-75
2021/01/05 00:36:52;;;;;;;33.63;18.93;;;;;;;-2.04;100.00;95038.75;1022826;28;20676;-74
2021/01/05 00:37:23;;;;;;;32.07;17.97;;;;;;;-2.05;100.00;95036.38;1031172;28;20030;-72
2021/01/05 00:37:53;;;;;;;32.87;18.37;;;;;;;-2.10;100.00;95018.22;1029844;28;20041;-72
2021/01/05 00:38:24;;;;;;;33.87;19.47;;;;;;;-2.17;100.00;95013.88;1036081;28;20025;-71
2021/01/05 00:38:54;;;;;;;33.00;19.07;;;;;;;-2.03;100.00;95029.25;1030712;28;20026;-73
2021/01/05 00:39:25;;;;;;;28.57;17.63;;;;;;;-2.11;100.00;95012.28;1031035;28;20086;-73
2021/01/05 00:39:55;;;;;;;32.20;19.20;;;;;;;-1.95;100.00;95044.47;1034982;28;20389;-73
2021/01/05 00:40:26;;;;;;;32.17;18.47;;;;;;;-1.93;100.00;95045.84;1034964;28;20101;-74
2021/01/05 00:40:56;;;;;;;33.77;19.20;;;;;;;-2.00;100.00;95028.88;1035166;28;20528;-73
2021/01/05 00:41:27;;;;;;;30.70;18.80;;;;;;;-1.98;100.00;95032.00;1027348;28;20035;-73
2021/01/05 00:41:57;;;;;;;34.43;19.57;;;;;;;-1.92;100.00;95042.28;1026678;28;20486;-73
2021/01/05 00:42:28;;;;;;;30.37;18.37;;;;;;;-1.90;100.00;95045.44;1027307;28;20031;-74
2021/01/05 00:42:58;;;;;;;30.23;17.50;;;;;;;-1.92;100.00;95046.63;1027326;28;20421;-73
2021/01/05 00:43:29;;;;;;;34.17;19.17;;;;;;;-1.96;100.00;95041.09;1035134;28;20026;-74
2021/01/05 00:44:00;;;;;;;33.13;19.97;;;;;;;-1.94;100.00;95033.22;1034795;28;20030;-74
2021/01/05 00:44:30;;;;;;;31.17;18.57;;;;;;;-1.89;100.00;95048.78;1027233;28;20692;-74
2021/01/05 00:45:01;;;;;;;33.80;18.67;;;;;;;-1.93;100.00;95039.91;1026417;28;20273;-73
2021/01/05 00:45:32;;;;;;;28.50;17.97;;;;;;;-1.86;100.00;95050.19;1026429;28;20093;-74
2021/01/05 00:46:04;;;;;;;32.95;19.73;;;;;;;-1.97;100.00;95038.75;1031552;28;20516;-73
2021/01/05 00:46:34;;;;;;;32.22;18.35;;;;;;;-1.87;100.00;95043.47;1035648;28;20092;-74
2021/01/05 00:47:05;;;;;;;30.17;19.23;;;;;;;-1.96;100.00;95035.97;1036029;28;20139;-76
2021/01/05 00:47:35;;;;;;;32.47;19.60;;;;;;;-1.82;100.00;95051.34;1035010;28;20033;-74
2021/01/05 00:48:06;;;;;;;30.60;18.50;;;;;;;-1.84;100.00;95056.72;1034998;28;20081;-75
2021/01/05 00:48:37;;;;;;;32.33;19.90;;;;;;;-1.81;100.00;95052.91;1027122;28;20105;-75
2021/01/05 00:49:07;;;;;;;30.43;18.40;;;;;;;-2.32;100.00;94995.31;1030245;28;20280;-75
2021/01/05 00:49:38;;;;;;;34.33;19.40;;;;;;;-1.83;100.00;95060.84;1035269;28;20041;-77
2021/01/05 00:50:09;;;;;;;33.20;19.97;;;;;;;-1.85;100.00;95062.81;1031085;28;20026;-73
2021/01/05 00:50:39;;;;;;;31.88;18.35;;;;;;;-1.94;100.00;95043.50;1026569;28;20034;-71
2021/01/05 00:51:10;;;;;;;36.43;19.97;;;;;;;-1.84;100.00;95058.50;1031078;28;20126;-73
2021/01/05 00:51:40;;;;;;;32.90;19.60;;;;;;;-1.83;100.00;95054.94;1031475;28;20034;-73
2021/01/05 00:52:11;;;;;;;31.87;18.77;;;;;;;-1.86;100.00;95061.25;1034025;28;20056;-75
2021/01/05 00:52:41;;;;;;;30.93;19.27;;;;;;;-1.97;100.00;95052.38;1039272;28;20527;-73
2021/01/05 00:53:11;;;;;;;38.97;19.47;;;;;;;-1.94;100.00;95058.91;1039161;28;20065;-72
2021/01/05 00:53:42;;;;;;;32.77;19.50;;;;;;;-2.19;100.00;95022.75;1040356;28;20021;-73
2021/01/05 00:54:13;;;;;;;29.57;18.03;;;;;;;-2.07;100.00;95043.50;1038655;28;20029;-73
2021/01/05 00:54:43;;;;;;;32.63;18.97;;;;;;;-1.91;100.00;95053.38;1035000;28;20060;-73
2021/01/05 00:55:14;;;;;;;33.27;20.00;;;;;;;-1.87;100.00;95054.53;1034329;28;20052;-74
2021/01/05 00:55:44;;;;;;;33.77;18.97;;;;;;;-1.94;100.00;95044.28;1030716;28;20033;-75
2021/01/05 00:56:15;;;;;;;33.07;19.70;;;;;;;-1.85;100.00;95062.81;1037588;28;20025;-75
2021/01/05 00:57:08;;;;;;;34.97;20.73;;;;;;;-1.88;100.00;95047.00;1042923;28;20029;-73
2021/01/05 00:57:39;;;;;;;32.78;19.65;;;;;;;-1.82;100.00;95056.50;1040551;28;20051;-73
2021/01/05 00:58:09;;;;;;;32.60;18.65;;;;;;;-1.83;100.00;95050.56;1035149;28;20041;-71
2021/01/05 00:58:40;;;;;;;31.17;18.43;;;;;;;-1.75;100.00;95058.06;1029444;28;20653;-76
2021/01/05 00:59:10;;;;;;;34.60;20.17;;;;;;;-1.75;100.00;95060.63;1032189;28;20048;-73
2021/01/05 00:59:41;;;;;;;33.33;18.77;;;;;;;-1.89;100.00;95035.94;1031101;28;20022;-74
2021/01/05 01:00:14;;;;;;;32.73;20.03;;;;;;;-1.80;100.00;95050.16;1029709;28;20041;-73
2021/01/05 01:00:45;;;;;;;32.47;19.60;;;;;;;-1.76;100.00;95053.91;1029122;28;20035;-73
2021/01/05 01:01:15;;;;;;;35.00;20.23;;;;;;;-1.75;100.00;95052.91;1027771;28;20047;-73
2021/01/05 01:01:46;;;;;;;34.13;20.53;;;;;;;-1.81;100.00;95040.88;1029183;28;20505;-75
2021/01/05 01:02:16;;;;;;;34.73;20.10;;;;;;;-1.75;100.00;95052.91;1026954;28;20027;-73
2021/01/05 01:02:48;;;;;;;34.47;19.57;;;;;;;-1.77;100.00;95044.63;1033031;28;20083;-74
2021/01/05 01:03:19;;;;;;;32.33;19.05;;;;;;;-1.80;100.00;95044.25;1034907;28;20835;-72
2021/01/05 01:03:49;;;;;;;32.37;19.80;;;;;;;-1.81;100.00;95047.78;1024828;28;20073;-75
2021/01/05 01:04:20;;;;;;;34.33;21.00;;;;;;;-1.85;100.00;95031.19;1030906;28;20049;-73
2021/01/05 01:04:51;;;;;;;36.13;20.57;;;;;;;-1.74;100.00;95054.50;1034461;28;20095;-73
2021/01/05 01:05:21;;;;;;;35.83;20.47;;;;;;;-1.91;100.00;95023.31;1034846;28;20685;-72
2021/01/05 01:05:52;;;;;;;33.60;20.07;;;;;;;-1.77;100.00;95059.25;1034964;28;20030;-73
2021/01/05 01:06:22;;;;;;;31.10;19.70;;;;;;;-1.87;100.00;95043.47;1035230;28;20640;-75
2021/01/05 01:06:53;;;;;;;35.50;21.20;;;;;;;-1.75;100.00;95054.69;1027075;28;20026;-74
2021/01/05 01:07:24;;;;;;;34.37;20.90;;;;;;;-1.80;100.00;95045.03;1034465;28;20117;-74
2021/01/05 01:07:54;;;;;;;32.90;19.50;;;;;;;-1.72;100.00;95060.22;1031321;28;20031;-72
2021/01/05 01:08:25;;;;;;;33.90;20.10;;;;;;;-1.74;100.00;95048.56;1031935;28;20034;-74
2021/01/05 01:08:55;;;;;;;29.17;18.80;;;;;;;-1.81;100.00;95043.44;1030825;28;20023;-76
2021/01/05 01:09:25;;;;;;;34.90;21.67;;;;;;;-1.76;100.00;95047.97;1035155;28;20620;-73
2021/01/05 01:09:56;;;;;;;33.30;20.67;;;;;;;-1.75;100.00;95055.47;1032709;28;20057;-73
2021/01/05 01:10:26;;;;;;;34.40;20.27;;;;;;;-1.79;100.00;95056.88;1031043;28;20092;-73
2021/01/05 01:10:57;;;;;;;35.17;20.47;;;;;;;-1.84;100.00;95059.28;1034955;28;20026;-74
2021/01/05 01:11:27;;;;;;;31.80;19.90;;;;;;;-1.80;100.00;95059.66;1030900;28;20031;-74
2021/01/05 01:12:05;;;;;;;30.50;19.57;;;;;;;-1.99;100.00;95035.56;1029090;28;20030;-72
2021/01/05 01:12:35;;;;;;;33.55;18.73;;;;;;;-1.95;100.00;95045.25;1032037;28;20022;-74
2021/01/05 01:13:06;;;;;;;33.07;20.10;;;;;;;-2.04;100.00;95041.31;1026799;28;20042;-73
2021/01/05 01:13:37;;;;;;;35.65;20.45;;;;;;;-1.96;100.00;95061.66;1030395;28;20072;-73
2021/01/05 01:14:07;;;;;;;36.57;19.80;;;;;;;-2.10;100.00;95039.56;1035064;28;20077;-73
2021/01/05 01:14:38;;;;;;;34.33;20.03;;;;;;;-1.96;100.00;95058.31;1027056;28;20586;-75
2021/01/05 01:15:08;;;;;;;36.23;20.93;;;;;;;-2.06;100.00;95042.50;1029780;28;20026;-75
2021/01/05 01:15:39;;;;;;;33.30;21.10;;;;;;;-2.06;100.00;95045.09;1026754;28;20026;-73
2021/01/05 01:16:10;;;;;;;38.87;22.07;;;;;;;-2.00;100.00;95054.56;1026944;28;20094;-74
2021/01/05 01:16:40;;;;;;;37.80;21.47;;;;;;;-2.02;100.00;95043.69;1030924;28;20030;-74
2021/01/05 01:17:11;;;;;;;38.90;21.93;;;;;;;-1.99;100.00;95056.94;1033475;28;20413;-75
2021/01/05 01:17:41;;;;;;;36.00;21.33;;;;;;;-1.97;100.00;95060.09;1034853;28;20025;-73
2021/01/05 01:18:12;;;;;;;36.90;21.23;;;;;;;-1.97;100.00;95056.75;1031096;28;20045;-75
2021/01/05 01:18:42;;;;;;;34.10;20.23;;;;;;;-1.98;100.00;95052.56;1030558;28;20072;-73
2021/01/05 01:19:13;;;;;;;33.53;20.27;;;;;;;-1.95;100.00;95057.31;1031003;28;20383;-76
2021/01/05 01:19:43;;;;;;;37.37;22.10;;;;;;;-2.08;100.00;95041.91;1030859;28;20595;-73
2021/01/05 01:20:14;;;;;;;37.03;20.90;;;;;;;-2.07;100.00;95052.00;1027194;28;20039;-73
2021/01/05 01:20:44;;;;;;;35.27;20.90;;;;;;;-2.23;100.00;95024.94;1031085;28;20505;-73
2021/01/05 01:21:15;;;;;;;35.47;21.53;;;;;;;-2.06;100.00;95052.78;1034952;28;20092;-73
2021/01/05 01:21:47;;;;;;;37.45;22.40;;;;;;;-2.10;100.00;95052.41;1030752;28;20129;-73
2021/01/05 01:22:18;;;;;;;35.97;22.70;;;;;;;-2.19;100.00;95033.81;1035033;28;20025;-73
2021/01/05 01:22:49;;;;;;;34.45;20.40;;;;;;;-2.10;100.00;95041.34;1030915;28;20041;-73
2021/01/05 01:23:19;;;;;;;35.90;22.20;;;;;;;-2.00;100.00;95062.28;1034868;28;20547;-74
2021/01/05 01:23:49;;;;;;;38.27;22.43;;;;;;;-2.01;100.00;95048.66;1026694;28;20037;-76
2021/01/05 01:24:23;;;;;;;35.83;21.00;;;;;;;-1.99;100.00;95067.22;1026855;28;20121;-76
2021/01/05 01:24:54;;;;;;;38.22;21.88;;;;;;;-1.95;100.00;95052.16;1026419;28;20045;-73
2021/01/05 01:25:24;;;;;;;38.13;21.53;;;;;;;-2.03;100.00;95039.53;1027974;28;20035;-73
2021/01/05 01:25:55;;;;;;;36.50;21.03;;;;;;;-2.17;100.00;95007.94;1025718;28;20122;-73
2021/01/05 01:26:25;;;;;;;35.93;20.83;;;;;;;-1.96;100.00;95045.47;1026995;28;20058;-74
2021/01/05 01:26:56;;;;;;;35.23;20.70;;;;;;;-1.88;100.00;95047.78;1031842;28;20026;-74
2021/01/05 01:27:26;;;;;;;33.97;21.70;;;;;;;-1.84;100.00;95048.22;1034343;28;20069;-74
2021/01/05 01:27:57;;;;;;;33.20;21.40;;;;;;;-1.93;100.00;95039.91;1034313;28;20109;-73
2021/01/05 01:28:27;;;;;;;33.93;21.27;;;;;;;-1.93;100.00;95029.63;1031828;28;20126;-73
2021/01/05 01:28:58;;;;;;;35.57;22.30;;;;;;;-1.84;100.00;95046.44;1030808;28;20525;-75
2021/01/05 01:29:28;;;;;;;36.13;20.77;;;;;;;-1.81;100.00;95042.63;1031052;28;20026;-74
2021/01/05 01:29:59;;;;;;;36.23;21.93;;;;;;;-1.84;100.00;95049.00;1030521;28;20038;-73
2021/01/05 01:30:29;;;;;;;33.67;21.13;;;;;;;-1.96;100.00;95030.81;1038261;28;20060;-75
2021/01/05 01:31:00;;;;;;;35.17;20.83;;;;;;;-1.83;100.00;95042.84;1027009;28;20054;-74
2021/01/05 01:31:30;;;;;;;34.33;20.73;;;;;;;-1.91;100.00;95033.59;1026888;28;20034;-74
2021/01/05 01:32:01;;;;;;;34.90;21.47;;;;;;;-1.87;100.00;95044.25;1026468;28;20031;-76
2021/01/05 01:32:31;;;;;;;36.60;22.07;;;;;;;-1.80;100.00;95049.38;1034864;28;20501;-73
2021/01/05 01:33:02;;;;;;;35.47;21.83;;;;;;;-1.92;100.00;95032.00;1035003;28;20044;-75
2021/01/05 01:33:32;;;;;;;35.67;21.17;;;;;;;-1.90;100.00;95034.38;1027939;28;20042;-74
2021/01/05 01:34:03;;;;;;;32.37;20.00;;;;;;;-1.82;100.00;95044.44;1034050;28;20493;-72
2021/01/05 01:34:33;;;;;;;32.47;20.50;;;;;;;-1.81;100.00;95046.03;1039072;28;20508;-73
2021/01/05 01:35:05;;;;;;;31.93;19.80;;;;;;;-1.94;100.00;95028.06;1026296;28;20027;-73
2021/01/05 01:35:35;;;;;;;36.72;20.40;;;;;;;-1.80;100.00;95047.59;1030508;28;20080;-73
2021/01/05 01:36:06;;;;;;;35.33;20.90;;;;;;;-1.86;100.00;95032.97;1030910;28;20088;-73
2021/01/05 01:36:36;;;;;;;32.30;20.07;;;;;;;-1.80;100.00;95039.09;1043249;28;20116;-73
2021/01/05 01:37:09;;;;;;;34.70;21.10;;;;;;;-1.76;100.00;95046.19;1035118;28;20022;-74
2021/01/05 01:37:39;;;;;;;33.88;19.70;;;;;;;-1.84;100.00;95033.56;1037944;28;20460;-75
2021/01/05 01:38:10;;;;;;;32.77;20.60;;;;;;;-1.76;100.00;95042.84;1034584;28;20026;-75
2021/01/05 01:38:40;;;;;;;33.93;19.83;;;;;;;-1.85;100.00;95029.41;1031960;28;20022;-74
2021/01/05 01:39:11;;;;;;;33.13;20.17;;;;;;;-1.87;100.00;95026.25;1034741;28;20112;-73
2021/01/05 01:39:42;;;;;;;33.97;19.57;;;;;;;-1.85;100.00;95034.53;1023193;28;20039;-74
2021/01/05 01:40:13;;;;;;;32.03;19.23;;;;;;;-1.89;100.00;95025.66;1034946;28;20076;-74
2021/01/05 01:40:44;;;;;;;33.20;19.65;;;;;;;-1.81;100.00;95042.63;1035228;28;20660;-72
2021/01/05 01:41:14;;;;;;;32.67;19.43;;;;;;;-1.82;100.00;95041.84;1035177;28;20037;-74
2021/01/05 01:41:45;;;;;;;36.00;20.37;;;;;;;-1.83;100.00;95037.72;1031044;28;20057;-72
2021/01/05 01:42:17;;;;;;;33.13;19.30;;;;;;;-1.93;100.00;95032.22;1031264;28;20033;-74
2021/01/05 01:42:48;;;;;;;35.00;20.08;;;;;;;-1.90;100.00;95047.22;1043003;28;20078;-71
2021/01/05 01:43:18;;;;;;;36.23;20.50;;;;;;;-1.89;100.00;95046.22;1043491;28;20558;-77
2021/01/05 01:43:48;;;;;;;36.47;19.90;;;;;;;-1.85;100.00;95047.41;1043699;28;20025;-74
2021/01/05 01:44:27;;;;;;;34.10;20.90;;;;;;;-1.84;100.00;95043.84;1044987;28;20052;-75
2021/01/05 01:44:57;;;;;;;34.92;19.35;;;;;;;-1.79;100.00;95044.03;1034782;28;20026;-72
2021/01/05 01:45:31;;;;;;;34.67;18.80;;;;;;;-1.99;100.00;95017.59;1030840;28;20037;-72
2021/01/05 01:46:04;;;;;;;29.48;17.63;;;;;;;-1.79;100.00;95049.16;1033047;28;20074;-76
2021/01/05 01:46:34;;;;;;;29.87;17.80;;;;;;;-1.82;100.00;95046.22;1034173;28;20080;-74
2021/01/05 01:47:29;;;;;;;30.43;18.27;;;;;;;-1.78;100.00;95042.25;1027938;28;20462;-71
2021/01/05 01:48:01;;;;;;;29.95;17.77;;;;;;;-1.78;100.00;95047.38;1033950;28;20022;-73
2021/01/05 01:48:31;;;;;;;30.83;19.23;;;;;;;-1.77;100.00;95049.75;1034774;28;20135;-74
2021/01/05 01:49:02;;;;;;;30.80;18.03;;;;;;;-1.84;100.00;95037.94;1031156;28;20045;-71
2021/01/05 01:49:33;;;;;;;29.23;17.03;;;;;;;-1.82;100.00;95035.94;1027562;28;20023;-72
2021/01/05 01:50:09;;;;;;;27.03;15.73;;;;;;;-1.84;100.00;95037.94;1031031;28;20650;-73
2021/01/05 01:50:39;;;;;;;23.40;15.20;;;;;;;-1.98;100.00;95022.53;1033520;28;20017;-72
2021/01/05 01:51:10;;;;;;;24.03;14.67;;;;;;;-1.89;100.00;95038.50;1023069;28;20020;-74
2021/01/05 01:51:40;;;;;;;25.70;15.60;;;;;;;-1.94;100.00;95030.63;1026486;28;20019;-75
2021/01/05 01:52:11;;;;;;;23.97;14.97;;;;;;;-1.82;100.00;95041.84;1030608;28;20044;-72
2021/01/05 01:53:20;;;;;;;29.23;16.10;;;;;;;-1.83;100.00;95048.00;1032251;28;20054;-74
2021/01/05 01:53:53;;;;;;;21.92;13.68;;;;;;;-1.83;100.00;95045.44;1025194;28;20030;-73
2021/01/05 01:55:00;;;;;;;25.50;15.10;;;;;;;-1.85;100.00;95039.69;1031565;28;20031;-73
2021/01/05 01:55:53;;;;;;;19.75;12.68;;;;;;;-1.83;100.00;95045.44;1045142;28;20017;-72
2021/01/05 01:57:07;;;;;;;20.58;11.82;;;;;;;-1.86;100.00;95045.03;1042950;28;20024;-73
2021/01/05 01:58:08;;;;;;;20.15;11.65;;;;;;;-1.89;100.00;95038.50;1018380;29;20083;-73
2021/01/05 01:58:46;;;;;;;17.42;10.38;;;;;;;-1.95;100.00;95029.03;1026302;28;20019;-72
2021/01/05 01:59:43;;;;;;;19.83;11.57;;;;;;;-1.85;100.00;95038.91;1020172;28;20031;-76
2021/01/05 02:00:34;;;;;;;18.63;11.07;;;;;;;-1.82;100.00;95044.44;1022244;29;20023;-74
2021/01/05 02:01:27;;;;;;;18.92;11.98;;;;;;;-1.85;100.00;95042.25;1023590;28;20410;-73
2021/01/05 02:02:03;;;;;;;20.48;11.40;;;;;;;-2.10;100.00;95008.72;1022441;29;20118;-73
2021/01/05 02:02:52;;;;;;;24.23;13.80;;;;;;;-1.84;100.00;95033.56;1018713;29;20483;-72
2021/01/05 02:03:23;;;;;;;24.27;12.77;;;;;;;-1.82;100.00;95044.44;1017616;28;20551;-75
2021/01/05 02:04:30;;;;;;;21.23;12.43;;;;;;;-1.79;100.00;95045.81;1030012;28;20025;-73
2021/01/05 02:05:08;;;;;;;20.20;12.52;;;;;;;-1.78;100.00;95045.59;1039804;28;20040;-74
2021/01/05 02:06:06;;;;;;;18.13;12.45;;;;;;;-1.82;100.00;95041.84;1038730;28;20674;-74
2021/01/05 02:06:53;;;;;;;21.17;12.82;;;;;;;-1.80;100.00;95045.03;1037222;28;20869;-73
2021/01/05 02:07:49;;;;;;;20.75;12.35;;;;;;;-1.81;100.00;95043.44;1030498;28;20199;-71
2021/01/05 02:08:49;;;;;;;21.60;13.00;;;;;;;-1.80;100.00;95045.03;1031839;28;20030;-73
2021/01/05 02:09:22;;;;;;;25.92;13.40;;;;;;;-1.84;100.00;95033.56;1030380;28;20034;-72
2021/01/05 02:10:04;;;;;;;21.45;13.27;;;;;;;-1.77;100.00;95043.84;1031089;28;20655;-74
2021/01/05 02:10:40;;;;;;;24.10;13.68;;;;;;;-1.79;100.00;95046.59;1038960;28;20036;-73
2021/01/05 02:11:32;;;;;;;21.20;13.00;;;;;;;-1.79;100.00;95045.81;1038952;28;20017;-74
2021/01/05 02:12:30;;;;;;;23.25;13.75;;;;;;;-1.94;100.00;95020.34;1038979;28;20489;-73
2021/01/05 02:13:24;;;;;;;23.38;12.98;;;;;;;-1.80;100.00;95044.25;1030776;28;20080;-73
2021/01/05 02:14:42;;;;;;;22.75;12.65;;;;;;;-1.78;100.00;95044.81;1017145;29;20127;-76
2021/01/05 02:15:30;;;;;;;26.42;14.02;;;;;;;-1.77;100.00;95038.69;1030400;28;20026;-73
2021/01/05 02:16:10;;;;;;;24.25;13.95;;;;;;;-1.76;100.00;95046.19;1018391;29;20136;-73
2021/01/05 02:16:46;;;;;;;22.02;13.55;;;;;;;-1.83;100.00;95036.94;1014269;29;20028;-73
2021/01/05 02:17:25;;;;;;;22.52;13.40;;;;;;;-1.77;100.00;95044.63;1014630;29;20024;-73
2021/01/05 02:18:33;;;;;;;24.98;14.07;;;;;;;-1.75;100.00;95045.19;1021805;28;20035;-71
2021/01/05 02:19:12;;;;;;;22.95;13.85;;;;;;;-1.77;100.00;95044.63;1034913;28;20018;-74
2021/01/05 02:19:48;;;;;;;22.98;13.43;;;;;;;-1.73;100.00;95050.16;1030684;28;20434;-73
2021/01/05 02:20:54;;;;;;;21.13;13.35;;;;;;;-1.72;100.00;95051.72;1034238;28;20114;-73
2021/01/05 02:21:28;;;;;;;22.08;12.77;;;;;;;-1.86;100.00;95029.63;1027848;28;20253;-72
2021/01/05 02:22:15;;;;;;;22.88;13.32;;;;;;;-1.73;100.00;95047.56;1022877;28;20118;-73
2021/01/05 02:22:45;;;;;;;21.90;13.05;;;;;;;-1.72;100.00;95047.34;1034885;28;20505;-73
2021/01/05 02:23:31;;;;;;;23.07;13.60;;;;;;;-1.73;100.00;95045.78;1038899;28;20116;-74
2021/01/05 02:24:23;;;;;;;21.92;13.18;;;;;;;-1.74;100.00;95044.22;1047063;28;20047;-71
2021/01/05 02:25:02;;;;;;;20.70;12.60;;;;;;;-1.80;100.00;95045.03;1038947;28;20057;-73
2021/01/05 02:25:53;;;;;;;24.27;13.43;;;;;;;-1.79;100.00;95051.72;1034015;28;20026;-72
2021/01/05 02:26:28;;;;;;;22.90;12.48;;;;;;;-1.81;100.00;95043.44;1034528;28;20033;-72
2021/01/05 02:27:00;;;;;;;19.42;11.85;;;;;;;-1.79;100.00;95045.81;1030471;28;20402;-74
2021/01/05 02:27:30;;;;;;;23.95;13.75;;;;;;;-1.77;100.00;95043.84;1031061;28;20045;-73
2021/01/05 02:28:02;;;;;;;21.00;13.00;;;;;;;-1.81;100.00;95043.44;1026651;28;20030;-73
2021/01/05 02:28:43;;;;;;;20.00;13.02;;;;;;;-1.86;100.00;95035.53;1030905;28;20435;-73
2021/01/05 02:29:25;;;;;;;21.38;12.98;;;;;;;-1.83;100.00;95040.28;1034888;28;20047;-74
2021/01/05 02:29:58;;;;;;;20.98;12.65;;;;;;;-2.08;100.00;95005.94;1030751;28;20015;-73
2021/01/05 02:30:42;;;;;;;20.08;12.80;;;;;;;-1.84;100.00;95038.72;1027954;28;20026;-74
2021/01/05 02:31:19;;;;;;;20.27;12.02;;;;;;;-1.85;100.00;95041.47;1034896;28;20310;-74
2021/01/05 02:32:03;;;;;;;23.65;12.60;;;;;;;-1.87;100.00;95033.97;1034791;28;20030;-74
2021/01/05 02:32:54;;;;;;;21.90;12.55;;;;;;;-1.88;100.00;95034.94;1034518;28;20117;-75
2021/01/05 02:33:33;;;;;;;26.75;13.10;;;;;;;-1.84;100.00;95049.00;1027623;28;20026;-74
2021/01/05 02:34:34;;;;;;;21.08;11.93;;;;;;;-1.86;100.00;95043.25;1034331;28;20520;-72
2021/01/05 02:35:24;;;;;;;;;;;;;;;-1.84;100.00;95045.63;1036936;28;20033;-74
2021/01/05 02:36:22;;;;;;;21.08;12.40;;;;;;;-1.90;100.00;95034.38;1040615;28;20000;-73
2021/01/05 02:37:08;;;;;;;20.48;11.82;;;;;;;-1.88;100.00;95042.66;1034571;28;20025;-74